sensor_id;sensor_type;location;lat;lon;timestamp;temperature;humidity
19256;DHT22;9762;52.490;13.410;2023-04-25T00:02:25;12.40;89.50
19256;DHT22;9762;52.490;13.410;2023-04-25T00:04:51;12.40;89.40
19256;DHT22;9762;52.490;13.410;2023-04-25T00:07:17;12.40;89.10
19256;DHT22;9762;52.490;13.410;2023-04-25T00:09:43;12.30;89.00
19256;DHT22;9762;52.490;13.410;2023-04-25T00:12:08;12.30;89.20
19256;DHT22;9762;52.490;13.410;2023-04-25T00:14:34;12.30;88.80
19256;DHT22;9762;52.490;13.410;2023-04-25T00:17:01;12.30;88.40
19256;DHT22;9762;52.490;13.410;2023-04-25T00:19:28;12.30;88.50
19256;DHT22;9762;52.490;13.410;2023-04-25T00:21:54;12.20;88.30
19256;DHT22;9762;52.490;13.410;2023-04-25T00:24:20;12.20;88.10
19256;DHT22;9762;52.490;13.410;2023-04-25T00:26:45;12.10;88.40
19256;DHT22;9762;52.490;13.410;2023-04-25T00:29:11;12.00;88.70
19256;DHT22;9762;52.490;13.410;2023-04-25T00:31:37;11.90;88.70
19256;DHT22;9762;52.490;13.410;2023-04-25T00:34:02;12.00;89.00
19256;DHT22;9762;52.490;13.410;2023-04-25T00:36:28;12.00;88.90
19256;DHT22;9762;52.490;13.410;2023-04-25T00:38:54;12.00;89.00
19256;DHT22;9762;52.490;13.410;2023-04-25T00:41:20;12.00;88.80
19256;DHT22;9762;52.490;13.410;2023-04-25T00:43:47;12.00;88.70
19256;DHT22;9762;52.490;13.410;2023-04-25T00:46:13;12.10;88.90
19256;DHT22;9762;52.490;13.410;2023-04-25T00:48:39;12.10;88.80
19256;DHT22;9762;52.490;13.410;2023-04-25T00:51:04;12.10;88.70
19256;DHT22;9762;52.490;13.410;2023-04-25T00:53:30;12.20;88.60
19256;DHT22;9762;52.490;13.410;2023-04-25T00:55:57;12.20;88.70
19256;DHT22;9762;52.490;13.410;2023-04-25T00:58:24;12.20;88.50
19256;DHT22;9762;52.490;13.410;2023-04-25T01:00:51;12.20;88.50
19256;DHT22;9762;52.490;13.410;2023-04-25T01:03:21;12.20;88.80
19256;DHT22;9762;52.490;13.410;2023-04-25T01:05:47;12.20;88.60
19256;DHT22;9762;52.490;13.410;2023-04-25T01:08:14;12.20;88.40
19256;DHT22;9762;52.490;13.410;2023-04-25T01:10:39;12.20;88.30
19256;DHT22;9762;52.490;13.410;2023-04-25T01:13:06;12.20;88.30
19256;DHT22;9762;52.490;13.410;2023-04-25T01:15:32;12.20;88.40
19256;DHT22;9762;52.490;13.410;2023-04-25T01:17:58;12.20;88.50
19256;DHT22;9762;52.490;13.410;2023-04-25T01:20:26;12.10;88.50
19256;DHT22;9762;52.490;13.410;2023-04-25T01:22:54;12.10;88.70
19256;DHT22;9762;52.490;13.410;2023-04-25T01:25:21;12.10;88.90
19256;DHT22;9762;52.490;13.410;2023-04-25T01:27:47;12.10;88.90
19256;DHT22;9762;52.490;13.410;2023-04-25T01:30:13;12.10;89.60
19256;DHT22;9762;52.490;13.410;2023-04-25T01:32:40;12.10;88.70
19256;DHT22;9762;52.490;13.410;2023-04-25T01:35:09;12.10;88.70
19256;DHT22;9762;52.490;13.410;2023-04-25T01:37:39;12.20;88.90
19256;DHT22;9762;52.490;13.410;2023-04-25T01:40:06;12.20;88.50
19256;DHT22;9762;52.490;13.410;2023-04-25T01:42:33;12.20;88.40
19256;DHT22;9762;52.490;13.410;2023-04-25T01:44:59;12.20;88.60
19256;DHT22;9762;52.490;13.410;2023-04-25T01:47:25;12.20;88.40
19256;DHT22;9762;52.490;13.410;2023-04-25T01:49:51;12.30;88.30
19256;DHT22;9762;52.490;13.410;2023-04-25T01:52:16;12.30;88.00
19256;DHT22;9762;52.490;13.410;2023-04-25T01:54:42;12.30;88.10
19256;DHT22;9762;52.490;13.410;2023-04-25T01:57:13;12.30;88.30
19256;DHT22;9762;52.490;13.410;2023-04-25T01:59:39;12.20;88.20
19256;DHT22;9762;52.490;13.410;2023-04-25T02:02:05;12.20;88.50
19256;DHT22;9762;52.490;13.410;2023-04-25T02:04:31;12.20;88.40
19256;DHT22;9762;52.490;13.410;2023-04-25T02:06:56;12.20;88.30
19256;DHT22;9762;52.490;13.410;2023-04-25T02:09:22;12.20;88.30
19256;DHT22;9762;52.490;13.410;2023-04-25T02:11:48;12.20;88.10
19256;DHT22;9762;52.490;13.410;2023-04-25T02:14:14;12.10;88.40
19256;DHT22;9762;52.490;13.410;2023-04-25T02:16:39;12.00;88.60
19256;DHT22;9762;52.490;13.410;2023-04-25T02:19:05;12.10;88.60
19256;DHT22;9762;52.490;13.410;2023-04-25T02:21:31;12.10;88.70
19256;DHT22;9762;52.490;13.410;2023-04-25T02:23:57;12.10;88.80
19256;DHT22;9762;52.490;13.410;2023-04-25T02:26:23;12.00;88.70
19256;DHT22;9762;52.490;13.410;2023-04-25T02:28:50;12.00;88.70
19256;DHT22;9762;52.490;13.410;2023-04-25T02:31:15;12.10;88.90
19256;DHT22;9762;52.490;13.410;2023-04-25T02:33:41;12.00;88.90
19256;DHT22;9762;52.490;13.410;2023-04-25T02:36:07;12.00;89.00
19256;DHT22;9762;52.490;13.410;2023-04-25T02:38:32;12.00;89.30
19256;DHT22;9762;52.490;13.410;2023-04-25T02:40:58;12.00;89.30
19256;DHT22;9762;52.490;13.410;2023-04-25T02:43:24;12.00;89.20
19256;DHT22;9762;52.490;13.410;2023-04-25T02:45:49;12.00;89.20
19256;DHT22;9762;52.490;13.410;2023-04-25T02:48:15;12.00;89.20
19256;DHT22;9762;52.490;13.410;2023-04-25T02:50:41;12.00;89.10
19256;DHT22;9762;52.490;13.410;2023-04-25T02:53:06;12.10;89.10
19256;DHT22;9762;52.490;13.410;2023-04-25T02:55:32;12.00;89.00
19256;DHT22;9762;52.490;13.410;2023-04-25T02:57:58;12.10;89.20
19256;DHT22;9762;52.490;13.410;2023-04-25T03:00:24;12.00;89.00
19256;DHT22;9762;52.490;13.410;2023-04-25T03:02:50;12.10;89.10
19256;DHT22;9762;52.490;13.410;2023-04-25T03:05:16;12.10;89.00
19256;DHT22;9762;52.490;13.410;2023-04-25T03:07:42;12.10;89.00
19256;DHT22;9762;52.490;13.410;2023-04-25T03:10:10;12.10;89.00
19256;DHT22;9762;52.490;13.410;2023-04-25T03:12:35;12.00;89.00
19256;DHT22;9762;52.490;13.410;2023-04-25T03:15:01;12.00;89.10
19256;DHT22;9762;52.490;13.410;2023-04-25T03:17:27;12.00;89.30
19256;DHT22;9762;52.490;13.410;2023-04-25T03:19:53;11.90;89.60
19256;DHT22;9762;52.490;13.410;2023-04-25T03:22:18;11.90;89.60
19256;DHT22;9762;52.490;13.410;2023-04-25T03:24:44;11.90;89.70
19256;DHT22;9762;52.490;13.410;2023-04-25T03:27:09;11.90;89.80
19256;DHT22;9762;52.490;13.410;2023-04-25T03:29:35;11.90;90.00
19256;DHT22;9762;52.490;13.410;2023-04-25T03:32:01;11.90;90.00
19256;DHT22;9762;52.490;13.410;2023-04-25T03:34:26;11.90;90.00
19256;DHT22;9762;52.490;13.410;2023-04-25T03:36:52;11.90;90.00
19256;DHT22;9762;52.490;13.410;2023-04-25T03:39:18;11.90;90.00
19256;DHT22;9762;52.490;13.410;2023-04-25T03:41:43;11.90;90.00
19256;DHT22;9762;52.490;13.410;2023-04-25T03:44:09;11.90;90.00
19256;DHT22;9762;52.490;13.410;2023-04-25T03:46:34;11.90;90.00
19256;DHT22;9762;52.490;13.410;2023-04-25T03:49:00;11.90;90.00
19256;DHT22;9762;52.490;13.410;2023-04-25T03:51:25;11.80;90.10
19256;DHT22;9762;52.490;13.410;2023-04-25T03:53:52;11.90;90.20
19256;DHT22;9762;52.490;13.410;2023-04-25T03:56:18;11.80;90.10
19256;DHT22;9762;52.490;13.410;2023-04-25T03:58:43;11.80;90.20
19256;DHT22;9762;52.490;13.410;2023-04-25T04:01:09;11.80;90.10
19256;DHT22;9762;52.490;13.410;2023-04-25T04:03:36;11.90;90.20
19256;DHT22;9762;52.490;13.410;2023-04-25T04:06:05;11.80;90.10
19256;DHT22;9762;52.490;13.410;2023-04-25T04:08:32;11.80;90.10
19256;DHT22;9762;52.490;13.410;2023-04-25T04:10:58;11.70;90.30
19256;DHT22;9762;52.490;13.410;2023-04-25T04:13:26;11.70;90.30
19256;DHT22;9762;52.490;13.410;2023-04-25T04:15:52;11.80;90.40
19256;DHT22;9762;52.490;13.410;2023-04-25T04:18:18;11.80;90.80
19256;DHT22;9762;52.490;13.410;2023-04-25T04:20:43;11.70;90.50
19256;DHT22;9762;52.490;13.410;2023-04-25T04:23:09;11.70;90.50
19256;DHT22;9762;52.490;13.410;2023-04-25T04:25:36;11.70;90.50
19256;DHT22;9762;52.490;13.410;2023-04-25T04:28:02;11.70;90.60
19256;DHT22;9762;52.490;13.410;2023-04-25T04:30:28;11.70;90.60
19256;DHT22;9762;52.490;13.410;2023-04-25T04:32:56;11.70;90.60
19256;DHT22;9762;52.490;13.410;2023-04-25T04:35:23;11.70;90.50
19256;DHT22;9762;52.490;13.410;2023-04-25T04:37:49;11.80;90.50
19256;DHT22;9762;52.490;13.410;2023-04-25T04:40:15;11.70;90.60
19256;DHT22;9762;52.490;13.410;2023-04-25T04:42:42;11.60;90.80
19256;DHT22;9762;52.490;13.410;2023-04-25T04:45:09;11.60;90.90
19256;DHT22;9762;52.490;13.410;2023-04-25T04:47:35;11.60;90.90
19256;DHT22;9762;52.490;13.410;2023-04-25T04:50:11;11.70;90.90
19256;DHT22;9762;52.490;13.410;2023-04-25T04:52:38;11.70;90.90
19256;DHT22;9762;52.490;13.410;2023-04-25T04:55:04;11.70;90.80
19256;DHT22;9762;52.490;13.410;2023-04-25T04:57:31;11.80;90.90
19256;DHT22;9762;52.490;13.410;2023-04-25T04:59:58;11.80;90.90
19256;DHT22;9762;52.490;13.410;2023-04-25T05:02:24;11.80;90.80
19256;DHT22;9762;52.490;13.410;2023-04-25T05:04:50;11.90;90.80
19256;DHT22;9762;52.490;13.410;2023-04-25T05:07:17;11.90;90.70
19256;DHT22;9762;52.490;13.410;2023-04-25T05:09:42;12.00;90.50
19256;DHT22;9762;52.490;13.410;2023-04-25T05:12:08;11.90;90.50
19256;DHT22;9762;52.490;13.410;2023-04-25T05:14:34;11.90;90.60
19256;DHT22;9762;52.490;13.410;2023-04-25T05:17:00;11.90;90.60
19256;DHT22;9762;52.490;13.410;2023-04-25T05:19:25;12.00;90.60
19256;DHT22;9762;52.490;13.410;2023-04-25T05:21:52;12.00;90.60
19256;DHT22;9762;52.490;13.410;2023-04-25T05:24:17;12.00;90.60
19256;DHT22;9762;52.490;13.410;2023-04-25T05:26:43;12.00;90.60
19256;DHT22;9762;52.490;13.410;2023-04-25T05:29:08;12.10;90.60
19256;DHT22;9762;52.490;13.410;2023-04-25T05:31:36;12.10;90.60
19256;DHT22;9762;52.490;13.410;2023-04-25T05:34:02;12.20;90.50
19256;DHT22;9762;52.490;13.410;2023-04-25T05:36:28;12.20;90.50
19256;DHT22;9762;52.490;13.410;2023-04-25T05:38:53;12.30;90.40
19256;DHT22;9762;52.490;13.410;2023-04-25T05:41:19;12.30;90.30
19256;DHT22;9762;52.490;13.410;2023-04-25T05:43:45;12.30;90.40
19256;DHT22;9762;52.490;13.410;2023-04-25T05:46:12;12.30;90.40
19256;DHT22;9762;52.490;13.410;2023-04-25T05:48:39;12.30;90.80
19256;DHT22;9762;52.490;13.410;2023-04-25T05:51:04;12.40;90.70
19256;DHT22;9762;52.490;13.410;2023-04-25T05:53:30;12.40;99.90
19256;DHT22;9762;52.490;13.410;2023-04-25T05:55:56;12.40;99.90
19256;DHT22;9762;52.490;13.410;2023-04-25T05:58:22;12.50;91.90
19256;DHT22;9762;52.490;13.410;2023-04-25T06:00:47;12.40;90.10
19256;DHT22;9762;52.490;13.410;2023-04-25T06:03:13;12.40;90.20
19256;DHT22;9762;52.490;13.410;2023-04-25T06:05:43;12.40;90.30
19256;DHT22;9762;52.490;13.410;2023-04-25T06:08:09;12.40;90.50
19256;DHT22;9762;52.490;13.410;2023-04-25T06:10:36;12.40;90.50
19256;DHT22;9762;52.490;13.410;2023-04-25T06:13:01;12.30;90.50
19256;DHT22;9762;52.490;13.410;2023-04-25T06:15:27;12.30;90.70
19256;DHT22;9762;52.490;13.410;2023-04-25T06:17:53;12.30;90.80
19256;DHT22;9762;52.490;13.410;2023-04-25T06:20:18;12.30;90.80
19256;DHT22;9762;52.490;13.410;2023-04-25T06:22:48;12.30;90.80
19256;DHT22;9762;52.490;13.410;2023-04-25T06:25:14;12.30;90.80
19256;DHT22;9762;52.490;13.410;2023-04-25T06:27:40;12.40;90.90
19256;DHT22;9762;52.490;13.410;2023-04-25T06:30:06;12.40;91.00
19256;DHT22;9762;52.490;13.410;2023-04-25T06:32:32;12.40;91.00
19256;DHT22;9762;52.490;13.410;2023-04-25T06:34:59;12.40;91.10
19256;DHT22;9762;52.490;13.410;2023-04-25T06:37:25;12.40;91.30
19256;DHT22;9762;52.490;13.410;2023-04-25T06:39:51;12.40;91.00
19256;DHT22;9762;52.490;13.410;2023-04-25T06:42:16;12.40;91.00
19256;DHT22;9762;52.490;13.410;2023-04-25T06:44:42;12.50;91.00
19256;DHT22;9762;52.490;13.410;2023-04-25T06:47:08;12.50;91.00
19256;DHT22;9762;52.490;13.410;2023-04-25T06:49:33;12.40;91.00
19256;DHT22;9762;52.490;13.410;2023-04-25T06:51:59;12.40;91.10
19256;DHT22;9762;52.490;13.410;2023-04-25T06:54:25;12.40;91.10
19256;DHT22;9762;52.490;13.410;2023-04-25T06:56:52;12.40;91.20
19256;DHT22;9762;52.490;13.410;2023-04-25T06:59:18;12.30;91.40
19256;DHT22;9762;52.490;13.410;2023-04-25T07:01:44;12.30;91.50
19256;DHT22;9762;52.490;13.410;2023-04-25T07:04:10;12.20;91.80
19256;DHT22;9762;52.490;13.410;2023-04-25T07:06:36;12.20;91.90
19256;DHT22;9762;52.490;13.410;2023-04-25T07:09:10;12.20;91.90
19256;DHT22;9762;52.490;13.410;2023-04-25T07:11:36;12.10;92.10
19256;DHT22;9762;52.490;13.410;2023-04-25T07:14:02;12.10;92.30
19256;DHT22;9762;52.490;13.410;2023-04-25T07:16:28;12.10;92.30
19256;DHT22;9762;52.490;13.410;2023-04-25T07:18:54;12.10;92.20
19256;DHT22;9762;52.490;13.410;2023-04-25T07:21:20;12.10;92.00
19256;DHT22;9762;52.490;13.410;2023-04-25T07:23:45;12.20;92.00
19256;DHT22;9762;52.490;13.410;2023-04-25T07:26:12;12.20;92.10
19256;DHT22;9762;52.490;13.410;2023-04-25T07:28:37;12.10;92.40
19256;DHT22;9762;52.490;13.410;2023-04-25T07:31:03;12.10;92.50
19256;DHT22;9762;52.490;13.410;2023-04-25T07:33:29;12.00;92.50
19256;DHT22;9762;52.490;13.410;2023-04-25T07:35:55;12.00;92.50
19256;DHT22;9762;52.490;13.410;2023-04-25T07:38:21;11.90;92.50
19256;DHT22;9762;52.490;13.410;2023-04-25T07:40:48;11.90;92.50
19256;DHT22;9762;52.490;13.410;2023-04-25T07:43:13;11.90;92.60
19256;DHT22;9762;52.490;13.410;2023-04-25T07:45:42;12.00;92.60
19256;DHT22;9762;52.490;13.410;2023-04-25T07:48:08;12.00;92.50
19256;DHT22;9762;52.490;13.410;2023-04-25T07:50:33;12.10;92.30
19256;DHT22;9762;52.490;13.410;2023-04-25T07:52:59;12.10;92.20
19256;DHT22;9762;52.490;13.410;2023-04-25T07:55:24;12.10;91.90
19256;DHT22;9762;52.490;13.410;2023-04-25T07:57:50;12.10;91.50
19256;DHT22;9762;52.490;13.410;2023-04-25T08:00:16;12.20;91.00
19256;DHT22;9762;52.490;13.410;2023-04-25T08:02:42;12.20;90.40
19256;DHT22;9762;52.490;13.410;2023-04-25T08:05:07;12.20;90.30
19256;DHT22;9762;52.490;13.410;2023-04-25T08:07:37;12.20;90.30
19256;DHT22;9762;52.490;13.410;2023-04-25T08:10:03;12.30;90.10
19256;DHT22;9762;52.490;13.410;2023-04-25T08:12:29;12.30;88.40
19256;DHT22;9762;52.490;13.410;2023-04-25T08:14:54;12.30;85.90
19256;DHT22;9762;52.490;13.410;2023-04-25T08:17:20;12.20;84.30
19256;DHT22;9762;52.490;13.410;2023-04-25T08:19:46;12.20;83.70
19256;DHT22;9762;52.490;13.410;2023-04-25T08:22:11;12.10;83.50
19256;DHT22;9762;52.490;13.410;2023-04-25T08:24:38;12.20;84.20
19256;DHT22;9762;52.490;13.410;2023-04-25T08:27:03;12.30;84.50
19256;DHT22;9762;52.490;13.410;2023-04-25T08:29:29;12.40;85.00
19256;DHT22;9762;52.490;13.410;2023-04-25T08:31:54;12.50;84.40
19256;DHT22;9762;52.490;13.410;2023-04-25T08:34:20;12.70;84.00
19256;DHT22;9762;52.490;13.410;2023-04-25T08:36:46;12.70;84.20
19256;DHT22;9762;52.490;13.410;2023-04-25T08:39:11;12.80;83.10
19256;DHT22;9762;52.490;13.410;2023-04-25T08:41:38;12.90;82.10
19256;DHT22;9762;52.490;13.410;2023-04-25T08:44:07;13.00;81.30
19256;DHT22;9762;52.490;13.410;2023-04-25T08:46:35;13.00;79.70
19256;DHT22;9762;52.490;13.410;2023-04-25T08:49:03;13.20;78.80
19256;DHT22;9762;52.490;13.410;2023-04-25T08:51:31;13.00;78.10
19256;DHT22;9762;52.490;13.410;2023-04-25T08:54:10;13.00;77.40
19256;DHT22;9762;52.490;13.410;2023-04-25T08:56:38;13.00;77.70
19256;DHT22;9762;52.490;13.410;2023-04-25T08:59:06;13.10;74.70
19256;DHT22;9762;52.490;13.410;2023-04-25T09:01:34;13.10;73.50
19256;DHT22;9762;52.490;13.410;2023-04-25T09:04:01;13.10;73.00
19256;DHT22;9762;52.490;13.410;2023-04-25T09:06:30;13.20;73.10
19256;DHT22;9762;52.490;13.410;2023-04-25T09:09:08;13.20;72.50
19256;DHT22;9762;52.490;13.410;2023-04-25T09:11:35;13.10;70.40
19256;DHT22;9762;52.490;13.410;2023-04-25T09:14:18;13.10;70.00
19256;DHT22;9762;52.490;13.410;2023-04-25T09:19:31;13.10;70.50
19256;DHT22;9762;52.490;13.410;2023-04-25T09:21:58;13.20;70.30
19256;DHT22;9762;52.490;13.410;2023-04-25T09:24:41;13.30;71.20
19256;DHT22;9762;52.490;13.410;2023-04-25T09:27:10;13.50;70.40
19256;DHT22;9762;52.490;13.410;2023-04-25T09:29:38;13.60;69.30
19256;DHT22;9762;52.490;13.410;2023-04-25T09:32:21;13.80;68.70
19256;DHT22;9762;52.490;13.410;2023-04-25T09:34:52;14.00;68.60
19256;DHT22;9762;52.490;13.410;2023-04-25T09:37:29;14.00;67.60
19256;DHT22;9762;52.490;13.410;2023-04-25T09:39:59;14.10;67.70
19256;DHT22;9762;52.490;13.410;2023-04-25T09:42:28;14.10;67.10
19256;DHT22;9762;52.490;13.410;2023-04-25T09:44:56;14.30;68.30
19256;DHT22;9762;52.490;13.410;2023-04-25T09:47:25;14.40;66.50
19256;DHT22;9762;52.490;13.410;2023-04-25T09:49:54;14.50;65.30
19256;DHT22;9762;52.490;13.410;2023-04-25T09:52:24;14.50;66.30
19256;DHT22;9762;52.490;13.410;2023-04-25T09:54:51;14.50;64.80
19256;DHT22;9762;52.490;13.410;2023-04-25T09:57:18;14.40;64.80
19256;DHT22;9762;52.490;13.410;2023-04-25T09:59:49;14.40;64.50
19256;DHT22;9762;52.490;13.410;2023-04-25T10:02:18;14.50;63.80
19256;DHT22;9762;52.490;13.410;2023-04-25T10:04:48;14.50;64.30
19256;DHT22;9762;52.490;13.410;2023-04-25T10:07:14;14.60;63.60
19256;DHT22;9762;52.490;13.410;2023-04-25T10:09:40;14.70;63.30
19256;DHT22;9762;52.490;13.410;2023-04-25T10:12:07;14.70;62.70
19256;DHT22;9762;52.490;13.410;2023-04-25T10:14:34;14.70;62.00
19256;DHT22;9762;52.490;13.410;2023-04-25T10:17:00;14.70;62.20
19256;DHT22;9762;52.490;13.410;2023-04-25T10:19:27;14.70;61.50
19256;DHT22;9762;52.490;13.410;2023-04-25T10:24:35;14.70;60.80
19256;DHT22;9762;52.490;13.410;2023-04-25T10:27:02;14.70;60.40
19256;DHT22;9762;52.490;13.410;2023-04-25T10:29:28;14.60;59.10
19256;DHT22;9762;52.490;13.410;2023-04-25T10:31:53;14.60;58.90
19256;DHT22;9762;52.490;13.410;2023-04-25T10:34:19;14.50;58.90
19256;DHT22;9762;52.490;13.410;2023-04-25T10:36:52;14.50;59.10
19256;DHT22;9762;52.490;13.410;2023-04-25T10:39:27;14.40;59.30
19256;DHT22;9762;52.490;13.410;2023-04-25T10:41:57;14.30;59.60
19256;DHT22;9762;52.490;13.410;2023-04-25T10:44:26;14.30;59.80
19256;DHT22;9762;52.490;13.410;2023-04-25T10:46:55;14.20;60.50
19256;DHT22;9762;52.490;13.410;2023-04-25T10:49:35;14.10;61.10
19256;DHT22;9762;52.490;13.410;2023-04-25T10:59:58;14.00;60.70
19256;DHT22;9762;52.490;13.410;2023-04-25T11:02:26;14.00;60.50
19256;DHT22;9762;52.490;13.410;2023-04-25T11:04:53;14.00;60.40
19256;DHT22;9762;52.490;13.410;2023-04-25T11:07:49;14.00;60.60
19256;DHT22;9762;52.490;13.410;2023-04-25T11:10:16;14.00;60.60
19256;DHT22;9762;52.490;13.410;2023-04-25T11:12:41;14.10;60.90
19256;DHT22;9762;52.490;13.410;2023-04-25T11:15:08;14.20;61.00
19256;DHT22;9762;52.490;13.410;2023-04-25T11:17:34;14.20;60.80
19256;DHT22;9762;52.490;13.410;2023-04-25T11:20:00;14.20;60.20
19256;DHT22;9762;52.490;13.410;2023-04-25T11:22:28;14.10;60.10
19256;DHT22;9762;52.490;13.410;2023-04-25T11:24:55;14.00;60.20
19256;DHT22;9762;52.490;13.410;2023-04-25T11:27:21;14.00;60.50
19256;DHT22;9762;52.490;13.410;2023-04-25T11:29:46;13.90;61.50
19256;DHT22;9762;52.490;13.410;2023-04-25T11:32:15;13.80;61.90
19256;DHT22;9762;52.490;13.410;2023-04-25T11:34:43;13.70;61.00
19256;DHT22;9762;52.490;13.410;2023-04-25T11:37:09;13.60;60.80
19256;DHT22;9762;52.490;13.410;2023-04-25T11:39:37;13.50;59.50
19256;DHT22;9762;52.490;13.410;2023-04-25T11:42:04;13.40;59.10
19256;DHT22;9762;52.490;13.410;2023-04-25T11:44:30;13.40;58.80
19256;DHT22;9762;52.490;13.410;2023-04-25T11:46:55;13.30;58.50
19256;DHT22;9762;52.490;13.410;2023-04-25T11:49:21;13.30;58.10
19256;DHT22;9762;52.490;13.410;2023-04-25T11:51:48;13.30;58.10
19256;DHT22;9762;52.490;13.410;2023-04-25T11:54:14;13.30;58.10
19256;DHT22;9762;52.490;13.410;2023-04-25T11:56:44;13.30;57.90
19256;DHT22;9762;52.490;13.410;2023-04-25T11:59:09;13.30;58.10
19256;DHT22;9762;52.490;13.410;2023-04-25T12:01:37;13.40;57.70
19256;DHT22;9762;52.490;13.410;2023-04-25T12:04:20;13.40;57.80
19256;DHT22;9762;52.490;13.410;2023-04-25T12:06:48;13.40;58.00
19256;DHT22;9762;52.490;13.410;2023-04-25T12:09:15;13.40;58.20
19256;DHT22;9762;52.490;13.410;2023-04-25T12:11:53;13.40;58.60
19256;DHT22;9762;52.490;13.410;2023-04-25T12:14:27;13.50;58.50
19256;DHT22;9762;52.490;13.410;2023-04-25T12:17:01;13.50;58.80
19256;DHT22;9762;52.490;13.410;2023-04-25T12:19:36;13.50;59.10
19256;DHT22;9762;52.490;13.410;2023-04-25T12:22:03;13.60;59.50
19256;DHT22;9762;52.490;13.410;2023-04-25T12:24:29;13.70;59.00
19256;DHT22;9762;52.490;13.410;2023-04-25T12:27:00;13.70;59.60
19256;DHT22;9762;52.490;13.410;2023-04-25T12:29:28;13.80;59.40
19256;DHT22;9762;52.490;13.410;2023-04-25T12:31:54;14.00;59.40
19256;DHT22;9762;52.490;13.410;2023-04-25T12:34:21;14.10;58.50
19256;DHT22;9762;52.490;13.410;2023-04-25T12:36:48;14.30;57.10
19256;DHT22;9762;52.490;13.410;2023-04-25T12:39:17;14.50;55.90
19256;DHT22;9762;52.490;13.410;2023-04-25T12:41:45;14.60;55.30
19256;DHT22;9762;52.490;13.410;2023-04-25T12:44:11;14.70;55.00
19256;DHT22;9762;52.490;13.410;2023-04-25T12:46:37;14.90;55.40
19256;DHT22;9762;52.490;13.410;2023-04-25T12:49:06;15.10;55.10
19256;DHT22;9762;52.490;13.410;2023-04-25T12:51:36;15.20;54.70
19256;DHT22;9762;52.490;13.410;2023-04-25T12:54:03;15.30;54.90
19256;DHT22;9762;52.490;13.410;2023-04-25T12:56:30;15.30;55.50
19256;DHT22;9762;52.490;13.410;2023-04-25T12:58:55;15.20;55.60
19256;DHT22;9762;52.490;13.410;2023-04-25T13:01:21;15.00;54.60
19256;DHT22;9762;52.490;13.410;2023-04-25T13:03:47;14.90;55.10
19256;DHT22;9762;52.490;13.410;2023-04-25T13:06:14;14.70;55.00
19256;DHT22;9762;52.490;13.410;2023-04-25T13:08:41;14.60;55.10
19256;DHT22;9762;52.490;13.410;2023-04-25T13:11:07;14.60;55.40
19256;DHT22;9762;52.490;13.410;2023-04-25T13:13:33;14.60;56.40
19256;DHT22;9762;52.490;13.410;2023-04-25T13:16:00;14.70;56.30
19256;DHT22;9762;52.490;13.410;2023-04-25T13:20:53;15.10;67.00
19256;DHT22;9762;52.490;13.410;2023-04-25T13:25:46;16.40;54.20
19256;DHT22;9762;52.490;13.410;2023-04-25T13:28:12;17.00;52.30
19256;DHT22;9762;52.490;13.410;2023-04-25T13:30:37;17.40;51.30
19256;DHT22;9762;52.490;13.410;2023-04-25T13:33:03;17.50;50.70
19256;DHT22;9762;52.490;13.410;2023-04-25T13:35:30;17.50;50.90
19256;DHT22;9762;52.490;13.410;2023-04-25T13:37:56;17.40;50.60
19256;DHT22;9762;52.490;13.410;2023-04-25T13:40:22;17.30;51.30
19256;DHT22;9762;52.490;13.410;2023-04-25T13:42:48;17.10;51.50
19256;DHT22;9762;52.490;13.410;2023-04-25T13:45:13;16.90;51.80
19256;DHT22;9762;52.490;13.410;2023-04-25T13:47:39;16.70;52.00
19256;DHT22;9762;52.490;13.410;2023-04-25T13:50:05;16.40;52.70
19256;DHT22;9762;52.490;13.410;2023-04-25T13:52:32;16.20;53.20
19256;DHT22;9762;52.490;13.410;2023-04-25T13:54:58;16.00;53.40
19256;DHT22;9762;52.490;13.410;2023-04-25T13:57:24;15.90;53.80
19256;DHT22;9762;52.490;13.410;2023-04-25T13:59:51;15.90;54.30
19256;DHT22;9762;52.490;13.410;2023-04-25T14:02:17;15.90;54.50
19256;DHT22;9762;52.490;13.410;2023-04-25T14:04:43;15.90;54.30
19256;DHT22;9762;52.490;13.410;2023-04-25T14:07:08;15.80;54.70
19256;DHT22;9762;52.490;13.410;2023-04-25T14:12:02;15.80;93.50
19256;DHT22;9762;52.490;13.410;2023-04-25T14:14:28;15.60;56.10
19256;DHT22;9762;52.490;13.410;2023-04-25T14:16:53;15.50;55.70
19256;DHT22;9762;52.490;13.410;2023-04-25T14:19:20;15.30;55.50
19256;DHT22;9762;52.490;13.410;2023-04-25T14:21:46;15.10;55.80
19256;DHT22;9762;52.490;13.410;2023-04-25T14:24:12;14.90;56.00
19256;DHT22;9762;52.490;13.410;2023-04-25T14:26:38;14.70;56.00
19256;DHT22;9762;52.490;13.410;2023-04-25T14:29:05;14.50;56.30
19256;DHT22;9762;52.490;13.410;2023-04-25T14:31:32;14.40;56.50
19256;DHT22;9762;52.490;13.410;2023-04-25T14:33:58;14.30;56.70
19256;DHT22;9762;52.490;13.410;2023-04-25T14:36:23;14.30;56.90
19256;DHT22;9762;52.490;13.410;2023-04-25T14:38:49;14.20;56.60
19256;DHT22;9762;52.490;13.410;2023-04-25T14:41:14;14.10;56.90
19256;DHT22;9762;52.490;13.410;2023-04-25T14:43:40;14.10;57.10
19256;DHT22;9762;52.490;13.410;2023-04-25T14:46:06;14.10;57.20
19256;DHT22;9762;52.490;13.410;2023-04-25T14:48:33;14.10;57.70
19256;DHT22;9762;52.490;13.410;2023-04-25T14:50:59;14.20;57.70
19256;DHT22;9762;52.490;13.410;2023-04-25T14:53:26;14.50;57.80
19256;DHT22;9762;52.490;13.410;2023-04-25T14:55:52;14.60;57.60
19256;DHT22;9762;52.490;13.410;2023-04-25T14:58:18;14.70;57.40
19256;DHT22;9762;52.490;13.410;2023-04-25T15:00:44;14.60;57.70
19256;DHT22;9762;52.490;13.410;2023-04-25T15:03:10;14.60;57.70
19256;DHT22;9762;52.490;13.410;2023-04-25T15:05:38;14.60;57.70
19256;DHT22;9762;52.490;13.410;2023-04-25T15:08:04;14.60;57.80
19256;DHT22;9762;52.490;13.410;2023-04-25T15:10:30;14.40;58.10
19256;DHT22;9762;52.490;13.410;2023-04-25T15:12:55;14.30;58.90
19256;DHT22;9762;52.490;13.410;2023-04-25T15:15:21;14.20;59.10
19256;DHT22;9762;52.490;13.410;2023-04-25T15:17:48;14.10;59.50
19256;DHT22;9762;52.490;13.410;2023-04-25T15:20:14;14.10;59.90
19256;DHT22;9762;52.490;13.410;2023-04-25T15:22:41;14.00;59.90
19256;DHT22;9762;52.490;13.410;2023-04-25T15:25:09;14.00;59.90
19256;DHT22;9762;52.490;13.410;2023-04-25T15:27:35;13.90;59.90
19256;DHT22;9762;52.490;13.410;2023-04-25T15:30:06;13.90;59.80
19256;DHT22;9762;52.490;13.410;2023-04-25T15:32:33;13.90;59.80
19256;DHT22;9762;52.490;13.410;2023-04-25T15:35:02;13.90;59.30
19256;DHT22;9762;52.490;13.410;2023-04-25T15:37:28;13.90;59.40
19256;DHT22;9762;52.490;13.410;2023-04-25T15:40:02;14.00;59.40
19256;DHT22;9762;52.490;13.410;2023-04-25T15:42:36;14.00;59.40
19256;DHT22;9762;52.490;13.410;2023-04-25T15:45:04;14.00;59.10
19256;DHT22;9762;52.490;13.410;2023-04-25T15:47:29;13.90;59.00
19256;DHT22;9762;52.490;13.410;2023-04-25T15:49:55;13.80;59.00